Home > Products > Valid Products > MTR

000
SAUS43 KMQT 301157
MTRP53
METAR KP53 301156Z AUTO 22004KT 04/02 A3004 RMK AO1 SLP180 70001
T00440017 10044 20039 53002





000
SAUS43 KMQT 301156
MTRP59
METAR KP59 301151Z AUTO 00000KT 04/03 A3001 RMK AO1 SLP171 70001
T00440028 10050 20039 58001





000
SAUS43 KMQT 301057
MTRP53
METAR KP53 301056Z AUTO 22006KT 04/02 A3004 RMK AO1 SLP180 T00440017





000
SAUS43 KMQT 301057
MTRP53
METAR KP53 301056Z AUTO 22006KT 04/02 A3004 RMK AO1 SLP180 T00440017





000
SAUS43 KMQT 301056
MTRP59
METAR KP59 301051Z AUTO 22004KT 04/03 A3002 RMK AO1 SLP172 T00440028





000
SAUS43 KMQT 301056
MTRP59
METAR KP59 301051Z AUTO 22004KT 04/03 A3002 RMK AO1 SLP172 T00440028





000
SAUS43 KMQT 300957
MTRP53
METAR KP53 300956Z AUTO 21004KT 04/02 A3004 RMK AO1 SLP178 T00440017





000
SAUS43 KMQT 300956
MTRP59
METAR KP59 300951Z AUTO 24003KT 04/03 A3002 RMK AO1 SLP173 T00440028





000
SAUS43 KMQT 300903 COR
MTRP53
METAR KP53 300856Z AUTO 21004KT 04/02 A3004 RMK AO1 SLP178 T00390017
58008





000
SAUS43 KMQT 300855
MTRP59
METAR KP59 300851Z AUTO 00000KT 04/02 A3002 RMK AO1 SLP172 T00440022
58006





000
SAUS43 KMQT 300757
MTRP53
METAR KP53 300756Z AUTO 20004KT 04/02 A3005 RMK AO1 SLP182 T00390017





000
SAUS43 KMQT 300756
MTRP59
METAR KP59 300751Z AUTO 00000KT 04/02 A3003 RMK AO1 SLP175 T00440022





000
SAUS43 KMQT 300657
MTRP53
METAR KP53 300656Z AUTO 20005KT 04/02 A3006 RMK AO1 SLP184 T00390017





000
SAUS43 KMQT 300656
MTRP59
METAR KP59 300651Z AUTO 26003KT 04/02 A3003 RMK AO1 SLP177 T00390022





000
SAUS43 KMQT 300558
MTRP53
METAR KP53 300556Z AUTO 19003KT 04/02 A3006 RMK AO1 SLP186 T00390017
10061 20033 58000





000
SAUS43 KMQT 300556
MTRP59
METAR KP59 300551Z AUTO 00000KT 04/02 A3004 RMK AO1 SLP178 60001
T00390022 10056 20039 58003





000
SAUS43 KMQT 300457
MTRP53
METAR KP53 300456Z AUTO 22004KT 04/02 A3007 RMK AO1 SLP187 T00390022
400780033





000
SAUS43 KMQT 300457
MTRP53
METAR KP53 300456Z AUTO 22004KT 04/02 A3007 RMK AO1 SLP187 T00390022
400780033





000
SAUS43 KMQT 300456
MTRP59
METAR KP59 300451Z AUTO 00000KT 04/02 A3004 RMK AO1 SLP178 P0001
T00440022 400610039





000
SAUS43 KMQT 300456
MTRP59
METAR KP59 300451Z AUTO 00000KT 04/02 A3004 RMK AO1 SLP178 P0001
T00440022 400610039





000
SAUS43 KMQT 300357
MTRP53
METAR KP53 300356Z AUTO 24003KT 05/02 A3007 RMK AO1 SLP187 T00500017





000
SAUS43 KMQT 300356
MTRP59
METAR KP59 300351Z AUTO 26003KT 04/02 A3005 RMK AO1 SLP182 T00440017





000
SAUS43 KMQT 300303 COR
MTRP53
METAR KP53 300256Z AUTO 32003KT 06/02 A3007 RMK AO1 SLP186 T00610017
53002





000
SAUS43 KMQT 300255
MTRP59
METAR KP59 300251Z AUTO 17003KT 05/02 A3005 RMK AO1 SLP182 T00500017
53001





000
SAUS43 KMQT 300157
MTRP53
METAR KP53 300156Z AUTO 00000KT 03/01 A3006 RMK AO1 SLP184 T00330011





000
SAUS43 KMQT 300156
MTRP59
METAR KP59 300151Z AUTO 36008KT 06/01 A3004 RMK AO1 SLP181 T00560011





000
SAUS43 KMQT 300103 COR
MTRP53
METAR KP53 300056Z AUTO 32005KT 06/02 A3006 RMK AO1 SLP184 T00560017





000
SAUS43 KMQT 300054
MTRP59
METAR KP59 300051Z AUTO 00000KT 06/01 A3004 RMK AO1 SLP181 T00560006





000
SAUS43 KMQT 292357
MTRP53
METAR KP53 292356Z AUTO 36008KT 06/02 A3006 RMK AO1 SLP185 60001
T00560022 10067 20056 51012





000
SAUS43 KMQT 292356
MTRP59
METAR KP59 292351Z AUTO 00000KT 05/01 A3004 RMK AO1 SLP180 T00500006
10061 20044 53006





000
SAUS43 KMQT 292257
MTRP53
METAR KP53 292256Z AUTO 34008KT 06/02 A3005 RMK AO1 SLP182 T00560022





000
SAUS43 KMQT 292256
MTRP59
METAR KP59 292251Z AUTO 01008KT 06/01 A3003 RMK AO1 SLP175 T00560006





000
SAUS43 KMQT 292157
MTRP53
METAR KP53 292156Z AUTO 35011KT 06/02 A3004 RMK AO1 SLP177 T00610017





000
SAUS43 KMQT 292156
MTRP59
METAR KP59 292151Z AUTO 35012KT 06/01 A3003 RMK AO1 SLP176 T00560011





000
SAUS43 KMQT 292057
MTRP53
METAR KP53 292056Z AUTO 34013KT 07/02 A3002 RMK AO1 SLP172 60001
T00670017 51020





000
SAUS43 KMQT 292056
MTRP59
METAR KP59 292051Z AUTO 36013KT 06/01 A3002 RMK AO1 SLP173 T00560011
53010





000
SAUS43 KMQT 291957
MTRP53
METAR KP53 291956Z AUTO 32014KT 06/02 A3000 RMK AO1 SLP166 P0001
T00610022





000
SAUS43 KMQT 291956
MTRP59
METAR KP59 291951Z AUTO 36015KT 06/01 A3001 RMK AO1 SLP167 T00560006





000
SAUS43 KMQT 291858
MTRP53
METAR KP53 291856Z AUTO 32017G24KT 06/02 A2999 RMK AO1 SLP160
T00610022





000
SAUS43 KMQT 291856
MTRP59
METAR KP59 291851Z AUTO 35016KT 05/02 A3000 RMK AO1 SLP167 T00500017





000
SAUS43 KMQT 291803 COR
MTRP53
METAR KP53 291756Z AUTO 35017G23KT 07/02 A2996 RMK AO1 PK WND
36027/1711 SLP152 T00670017 10067 20056 51019





000
SAUS43 KMQT 291755
MTRP59
METAR KP59 291751Z AUTO 02016KT 04/00 A2999 RMK AO1 SLP164 T00440000
10056 20044 51019





000
SAUS43 KMQT 291703 COR
MTRP53
METAR KP53 291656Z AUTO 35016KT 07/02 A2995 RMK AO1 PK WND
35028/1634 SLP147 T00670017





000
SAUS43 KMQT 291654
MTRP59
METAR KP59 291651Z AUTO 02013G21KT 04/01 A2999 RMK AO1 SLP161
T00440006





000
SAUS43 KMQT 291603 COR
MTRP53
METAR KP53 291556Z AUTO 35019G26KT 07/02 A2994 RMK AO1 PK WND
34027/1531 SLP141 T00670017





000
SAUS43 KMQT 291600 COR
MTRP59
METAR KP59 291551Z AUTO 01016KT 05/01 A2996 RMK AO1 SLP152 T00500011





000
SAUS43 KMQT 291457
MTRP53
METAR KP53 291456Z AUTO 35015G22KT 07/02 A2991 RMK AO1 SLP132
T00670022 51032





000
SAUS43 KMQT 291456
MTRP59
METAR KP59 291451Z AUTO 02019KT 05/01 A2994 RMK AO1 PK WND
02027/1410 SLP143 T00500011 51027





000
SAUS43 KMQT 291403 COR
MTRP53
METAR KP53 291356Z AUTO 35018G26KT 06/03 A2988 RMK AO1 PK WND
35026/1352 SLP124 T00610028





000
SAUS43 KMQT 291355
MTRP59
METAR KP59 291351Z AUTO 03021G27KT 04/01 A2991 RMK AO1 PK WND
01028/1259 SLP134 T00440011





000
SAUS43 KMQT 291303 COR
MTRP53
METAR KP53 291256Z AUTO 34014G24KT 06/03 A2985 RMK AO1 SLP113
T00610028





000
SAUS43 KMQT 291255
MTRP59
METAR KP59 291251Z AUTO 02020KT 04/02 A2988 RMK AO1 PK WND
01029/1217 SLP124 T00440017





000
SAUS43 KMQT 291157
MTRP53
METAR KP53 291156Z AUTO 34015KT 06/03 A2981 RMK AO1 PK WND
33027/1115 SLP099 P0002 60004 70005 T00610028 10067 20050 51028





000
SAUS43 KMQT 291156
MTRP59
METAR KP59 291151Z AUTO 02022G29KT 05/02 A2985 RMK AO1 PK WND
03029/1149 SLP115 70014 T00500017 10056 20044 51038





000
SAUS43 KMQT 291057
MTRP53
METAR KP53 291056Z AUTO 32015G22KT 06/03 A2978 RMK AO1 SLP089 P0001
T00610028





000
SAUS43 KMQT 291056
MTRP59
METAR KP59 291051Z AUTO 02020G27KT 05/02 A2981 RMK AO1 PK WND
01029/1029 SLP100 T00500017





000
SAUS43 KMQT 291003 COR
MTRP53
METAR KP53 290956Z AUTO 32010KT 06/03 A2976 RMK AO1 SLP083 P0001
T00560028





000
SAUS43 KMQT 291000 COR
MTRP59
METAR KP59 290951Z AUTO 03023KT 04/02 A2978 RMK AO1 PK WND
03029/0910 SLP090 T00440022





000
SAUS43 KMQT 290857
MTRP53
METAR KP53 290856Z AUTO 26009G15KT 220V300 06/01 A2973 RMK AO1
SLP070 T00610006 53012





000
SAUS43 KMQT 290856
MTRP59
METAR KP59 290851Z AUTO 02021G26KT 05/02 A2974 RMK AO1 PK WND
03027/0828 SLP076 T00500022 53029





000
SAUS43 KMQT 290757
MTRP53
METAR KP53 290756Z AUTO VRB06KT 06/M01 A2971 RMK AO1 SLP065
T00611006





000
SAUS43 KMQT 290756
MTRP59
METAR KP59 290751Z AUTO 36019KT 05/02 A2971 RMK AO1 PK WND
36026/0740 SLP065 T00500022





000
SAUS43 KMQT 290703 COR
MTRP53
METAR KP53 290656Z AUTO 26007KT 07/00 A2970 RMK AO1 SLP060 T00670000





000
SAUS43 KMQT 290700 COR
MTRP59
METAR KP59 290651Z AUTO 35019KT 05/02 A2968 RMK AO1 SLP054 T00500022





000
SAUS43 KMQT 290558
MTRP53
METAR KP53 290556Z AUTO 07/00 A2969 RMK AO1 SLP058 T00670000 10083
20067 51008





000
SAUS43 KMQT 290556
MTRP59
METAR KP59 290551Z AUTO 35021KT 05/02 A2965 RMK AO1 PK WND
35026/0525 SLP046 60011 T00500022 10072 20044 53016





000
SAUS43 KMQT 290457
MTRP53
METAR KP53 290456Z AUTO 29006KT 08/02 A2969 RMK AO1 SLP055 T00780017
401280072





000
SAUS43 KMQT 290456
MTRP59
METAR KP59 290451Z AUTO 35016KT 05/03 A2964 RMK AO1 SLP041 P0005
T00500033 400890044





000
SAUS43 KMQT 290357
MTRP53
METAR KP53 290356Z AUTO 08/02 A2968 RMK AO1 SLP054 T00780022





000
SAUS43 KMQT 290356
MTRP59
METAR KP59 290351Z AUTO 33012G22KT 06/03 A2962 RMK AO1 SLP034 P0004
T00560033





000
SAUS43 KMQT 290257
MTRP53
METAR KP53 290256Z AUTO 20006KT 08/03 A2967 RMK AO1 SLP050 T00780028
51006





000
SAUS43 KMQT 290256
MTRP59
METAR KP59 290251Z AUTO 32011G22KT 06/03 A2960 RMK AO1 SLP029 P0001
60002 T00560028 53010





000
SAUS43 KMQT 290203 COR
MTRP53
METAR KP53 290156Z AUTO VRB04KT 08/02 A2966 RMK AO1 SLP048 T00780022





000
SAUS43 KMQT 290155
MTRP59
METAR KP59 290151Z AUTO 33008G23KT 07/03 A2959 RMK AO1 SLP024 P0001
T00670033





000
SAUS43 KMQT 290057
MTRP53
METAR KP53 290056Z AUTO VRB06KT 07/03 A2966 RMK AO1 SLP048 T00720028





000
SAUS43 KMQT 290056
MTRP59
METAR KP59 290051Z AUTO 30009G18KT 270V330 07/04 A2958 RMK AO1
SLP023 T00720039





000
SAUS43 KMQT 290003 COR
MTRP53
METAR KP53 282356Z AUTO 21005KT 08/03 A2965 RMK AO1 SLP043 T00830033
10128 20083 51019





000
SAUS43 KMQT 290000 COR
MTRP59
METAR KP59 282351Z AUTO 31009G17KT 260V350 07/04 A2957 RMK AO1
SLP018 P0002 60002 T00670039 10083 20067 53015





000
SAUS43 KMQT 282300 COR
MTRP59
METAR KP59 282251Z AUTO 32010G23KT 08/03 A2955 RMK AO1 SLP011
T00780033





000
SAUS43 KMQT 282257
MTRP53
METAR KP53 282256Z AUTO 23008KT 09/03 A2963 RMK AO1 SLP037 T00940033





000
SAUS43 KMQT 282157
MTRP53
METAR KP53 282156Z AUTO 26007KT 210V320 10/02 A2962 RMK AO1 SLP033
T01000022





000
SAUS43 KMQT 282156
MTRP59
METAR KP59 282151Z AUTO 31009KT 250V340 08/04 A2954 RMK AO1 SLP007
T00830039





000
SAUS43 KMQT 282100 COR
MTRP59
METAR KP59 282051Z AUTO 31012G23KT 08/04 A2953 RMK AO1 SLP002
T00830044 53009





000
SAUS43 KMQT 282058
MTRP53
METAR KP53 282056Z AUTO VRB05KT 11/03 A2959 RMK AO1 SLP023 T01110033
53018





000
SAUS43 KMQT 281957
MTRP53
METAR KP53 281956Z AUTO 34004KT 11/05 A2956 RMK AO1 SLP014 T01110050





000
SAUS43 KMQT 281956
MTRP59
METAR KP59 281951Z AUTO 32008G23KT 280V350 08/05 A2952 RMK AO1
SLP999 T00830050





000
SAUS43 KMQT 281858
MTRP53
METAR KP53 281856Z AUTO 33007KT 12/05 A2955 RMK AO1 SLP010 T01170050





000
SAUS43 KMQT 281856
MTRP59
METAR KP59 281851Z AUTO 31009G16KT 270V340 08/06 A2950 RMK AO1
SLP994 T00830056





000
SAUS43 KMQT 281803 COR
MTRP53
METAR KP53 281756Z AUTO VRB06KT 12/06 A2954 RMK AO1 SLP005 60001
T01220061 10128 20094 53007





000
SAUS43 KMQT 281800 COR
MTRP59
METAR KP59 281751Z AUTO 32010G18KT 300V360 08/06 A2950 RMK AO1
SLP993 P0001 60001 T00780061 10089 20072 52004





000
SAUS43 KMQT 281703 COR
MTRP53
METAR KP53 281656Z AUTO VRB05KT 12/07 A2953 RMK AO1 SLP002 T01170072





000
SAUS43 KMQT 281655
MTRP59
METAR KP59 281651Z AUTO 34011G16KT 08/07 A2949 RMK AO1 SLP991
T00830067





000
SAUS43 KMQT 281655
MTRP59
METAR KP59 281651Z AUTO 34011G16KT 08/07 A2949 RMK AO1 SLP991
T00830067





000
SAUS43 KMQT 281604 COR
MTRP53
METAR KP53 281556Z AUTO VRB04KT 11/07 A2952 RMK AO1 SLP000 T01060072





000
SAUS43 KMQT 281555
MTRP59
METAR KP59 281551Z AUTO 32007G16KT 08/06 A2949 RMK AO1 SLP991
T00830061





000
SAUS43 KMQT 281555
MTRP59
METAR KP59 281551Z AUTO 32007G16KT 08/06 A2949 RMK AO1 SLP991
T00830061





000
SAUS43 KMQT 281504 COR
MTRP53
METAR KP53 281456Z AUTO 10/08 A2952 RMK AO1 SLP998 60001 T01000083
51008





000
SAUS43 KMQT 281500 COR
MTRP59
METAR KP59 281451Z AUTO VRB05KT 08/07 A2949 RMK AO1 SLP989 T00780067
51001





000
SAUS43 KMQT 281357
MTRP53
METAR KP53 281356Z AUTO 22003KT 10/08 A2951 RMK AO1 SLP997 T01000078





000
SAUS43 KMQT 281356
MTRP59
METAR KP59 281351Z AUTO 00000KT 08/07 A2949 RMK AO1 SLP989 T00780067





000
SAUS43 KMQT 281257
MTRP53
METAR KP53 281256Z AUTO 25004KT 09/07 A2950 RMK AO1 SLP992 P0001
T00940072





000
SAUS43 KMQT 281256
MTRP59
METAR KP59 281251Z AUTO 00000KT 07/07 A2949 RMK AO1 SLP989 T00720067





000
SAUS43 KMQT 281157
MTRP53
METAR KP53 281156Z AUTO 29004KT 10/08 A2949 RMK AO1 SLP990 P0004
60040 70052 T01000078 10106 20094 55008





000
SAUS43 KMQT 281156
MTRP59
METAR KP59 281151Z AUTO 00000KT 07/07 A2949 RMK AO1 SLP989 70011
T00720067 10078 20072 58014





000
SAUS43 KMQT 281057
MTRP53
METAR KP53 281056Z AUTO VRB03KT 10/08 A2948 RMK AO1 SLP987 P0004
T01000078





000
SAUS43 KMQT 281056
MTRP59
METAR KP59 281051Z AUTO 00000KT 07/06 A2950 RMK AO1 SLP995 T00720061





000
SAUS43 KMQT 280959
MTRP53
METAR KP53 280956Z AUTO 00000KT 10/08 A2948 RMK AO1 SLP986 P0002
T01000083





000
SAUS43 KMQT 280959
MTRP53
METAR KP53 280956Z AUTO 00000KT 10/08 A2948 RMK AO1 SLP986 P0002
T01000083





000
SAUS43 KMQT 280955
MTRP59
METAR KP59 280951Z AUTO 00000KT 08/07 A2952 RMK AO1 SLP000 T00780067





000
SAUS43 KMQT 280955
MTRP59
METAR KP59 280951Z AUTO 00000KT 08/07 A2952 RMK AO1 SLP000 T00780067





000
SAUS43 KMQT 280857
MTRP53
METAR KP53 280856Z AUTO 28010G17KT 10/08 A2952 RMK AO1 PRESRR SLP998
P0028 60030 T01000083 55012





000
SAUS43 KMQT 280856
MTRP59
METAR KP59 280851Z AUTO 19003KT 08/07 A2953 RMK AO1 SLP003 T00780067
57012





000
SAUS43 KMQT 280757
MTRP53
METAR KP53 280756Z AUTO 34003KT 11/08 A2948 RMK AO1 SLP987 P0002
T01060083





000
SAUS43 KMQT 280756
MTRP59
METAR KP59 280751Z AUTO 20006KT 08/06 A2955 RMK AO1 SLP012 T00780061





000
SAUS43 KMQT 280657
MTRP53
METAR KP53 280656Z AUTO VRB04KT 10/08 A2953 RMK AO1 SLP002 T01000078





000
SAUS43 KMQT 280656
MTRP59
METAR KP59 280651Z AUTO 14005KT 07/06 A2954 RMK AO1 SLP006 T00720061





000
SAUS43 KMQT 280557
MTRP53
METAR KP53 280556Z AUTO 00000KT 10/08 A2955 RMK AO1 SLP010 T01000078
10106 20100 58018





000
SAUS43 KMQT 280556
MTRP59
METAR KP59 280551Z AUTO 14003KT 08/06 A2956 RMK AO1 SLP015 T00780061
10078 20072 58019





000
SAUS43 KMQT 280457
MTRP53
METAR KP53 280456Z AUTO 00000KT 10/07 A2958 RMK AO1 SLP020 T01000072
401170028





000
SAUS43 KMQT 280457
MTRP53
METAR KP53 280456Z AUTO 00000KT 10/07 A2958 RMK AO1 SLP020 T01000072
401170028





000
SAUS43 KMQT 280456
MTRP59
METAR KP59 280451Z AUTO 18006KT 08/06 A2960 RMK AO1 SLP026 T00780061
400830050





000
SAUS43 KMQT 280456
MTRP59
METAR KP59 280451Z AUTO 18006KT 08/06 A2960 RMK AO1 SLP026 T00780061
400830050





000
SAUS43 KMQT 280358
MTRP53
METAR KP53 280356Z AUTO 00000KT 10/07 A2960 RMK AO1 SLP026 T01000072





000
SAUS43 KMQT 280355
MTRP59
METAR KP59 280351Z AUTO 16004KT 08/06 A2960 RMK AO1 SLP028 T00780061





000
SAUS43 KMQT 280355
MTRP59
METAR KP59 280351Z AUTO 16004KT 08/06 A2960 RMK AO1 SLP028 T00780061





000
SAUS43 KMQT 280257
MTRP53
METAR KP53 280256Z AUTO VRB04KT 10/07 A2961 RMK AO1 SLP030 T01000072
58009





000
SAUS43 KMQT 280256
MTRP59
METAR KP59 280251Z AUTO 16007KT 08/06 A2962 RMK AO1 SLP034 T00780056
58010





000
SAUS43 KMQT 280203 COR
MTRP53
METAR KP53 280156Z AUTO 11004KT 10/07 A2963 RMK AO1 SLP038 T01000072





000
SAUS43 KMQT 280203 COR
MTRP53
METAR KP53 280156Z AUTO 11004KT 10/07 A2963 RMK AO1 SLP038 T01000072





000
SAUS43 KMQT 280155
MTRP59
METAR KP59 280151Z AUTO 16006KT 08/06 A2963 RMK AO1 SLP039 T00780056





000
SAUS43 KMQT 280155
MTRP59
METAR KP59 280151Z AUTO 16006KT 08/06 A2963 RMK AO1 SLP039 T00780056





000
SAUS43 KMQT 280057
MTRP53
METAR KP53 280056Z AUTO 00000KT 10/07 A2963 RMK AO1 SLP038 T01000067





000
SAUS43 KMQT 280056
MTRP59
METAR KP59 280051Z AUTO 17005KT 07/06 A2964 RMK AO1 SLP041 T00720056





000
SAUS43 KMQT 272357
MTRP53
METAR KP53 272356Z AUTO 17004KT 10/07 A2964 RMK AO1 SLP039 60002
T01000067 10111 20100 56002





000
SAUS43 KMQT 272356
MTRP59
METAR KP59 272351Z AUTO 17007KT 07/05 A2965 RMK AO1 SLP046 T00720050
10083 20072 53002





000
SAUS43 KMQT 272257
MTRP53
METAR KP53 272256Z AUTO VRB04KT 10/06 A2964 RMK AO1 SLP039 T01000061





000
SAUS43 KMQT 272256
MTRP59
METAR KP59 272251Z AUTO 18007KT 07/05 A2964 RMK AO1 SLP042 T00720050





000
SAUS43 KMQT 272203 COR
MTRP53
METAR KP53 272156Z AUTO VRB04KT 11/06 A2963 RMK AO1 SLP038 T01060061





000
SAUS43 KMQT 272155
MTRP59
METAR KP59 272151Z AUTO 18005KT 08/05 A2964 RMK AO1 SLP041 T00780050





000
SAUS43 KMQT 272103 COR
MTRP53
METAR KP53 272056Z AUTO 11/06 A2964 RMK AO1 SLP041 60002 T01060061
56016





000
SAUS43 KMQT 272059 COR
MTRP59
METAR KP59 272051Z AUTO 19007G15KT 08/05 A2965 RMK AO1 SLP044
T00780050 52001





000
SAUS43 KMQT 272003 COR
MTRP53
METAR KP53 271956Z AUTO VRB06KT 11/06 A2965 RMK AO1 SLP043 P0002
T01060061





000
SAUS43 KMQT 271959 COR
MTRP59
METAR KP59 271951Z AUTO 20006KT 08/05 A2966 RMK AO1 SLP047 T00780050





000
SAUS43 KMQT 271857
MTRP53
METAR KP53 271856Z AUTO 17005KT 11/06 A2967 RMK AO1 SLP052 T01110056





000
SAUS43 KMQT 271856
MTRP59
METAR KP59 271851Z AUTO 19008G16KT 08/05 A2964 RMK AO1 SLP040
T00780050





000
SAUS43 KMQT 271803 COR
MTRP53
METAR KP53 271756Z AUTO 17008G14KT 11/05 A2969 RMK AO1 SLP058 60010
T01110050 10117 20061 55014





000
SAUS43 KMQT 271756
MTRP59
METAR KP59 271751Z AUTO 20008G22KT 07/04 A2964 RMK AO1 SLP043 60011
T00720044 10078 20072 58012





000
SAUS43 KMQT 271703 COR
MTRP53
METAR KP53 271656Z AUTO 11/04 A2968 RMK AO1 SLP055 T01110044





000
SAUS43 KMQT 271655
MTRP59
METAR KP59 271651Z AUTO 20008KT 07/04 A2968 RMK AO1 SLP058 T00720039





000
SAUS43 KMQT 271655
MTRP59
METAR KP59 271651Z AUTO 20008KT 07/04 A2968 RMK AO1 SLP058 T00720039





000
SAUS43 KMQT 271558
MTRP53
METAR KP53 271556Z AUTO 17012G19KT 10/04 A2968 RMK AO1 SLP055
T01000044





000
SAUS43 KMQT 271558
MTRP53
METAR KP53 271556Z AUTO 17012G19KT 10/04 A2968 RMK AO1 SLP055
T01000044





000
SAUS43 KMQT 271556
MTRP59
METAR KP59 271551Z AUTO 22010G18KT 07/04 A2971 RMK AO1 SLP067 P0001
T00720039





000
SAUS43 KMQT 271556
MTRP59
METAR KP59 271551Z AUTO 22010G18KT 07/04 A2971 RMK AO1 SLP067 P0001
T00720039





000
SAUS43 KMQT 271457
MTRP53
METAR KP53 271456Z AUTO 07/04 A2973 RMK AO1 SLP074 60010 T00720039
56013





000
SAUS43 KMQT 271456
MTRP59
METAR KP59 271451Z AUTO 22013G25KT 07/05 A2968 RMK AO1 SLP057 P0001
60010 T00720050 58007





000
SAUS43 KMQT 271403 COR
MTRP53
METAR KP53 271356Z AUTO 15007KT 07/03 A2974 RMK AO1 SLP077 T00720033





000
SAUS43 KMQT 271356
MTRP59
METAR KP59 271351Z AUTO 22009G18KT 07/05 A2971 RMK AO1 SLP066
T00720050





000
SAUS43 KMQT 271257
MTRP53
METAR KP53 271256Z AUTO 07/03 A2974 RMK AO1 PK WND 17029/1229 SLP075
P0010 T00720028





000
SAUS43 KMQT 271256
MTRP59
METAR KP59 271251Z AUTO 22010G24KT 08/06 A2969 RMK AO1 SLP062 P0009
T00780056





    US Dept of Commerce
    National Oceanic and Atmospheric Administration
    National Weather Service
    1325 East West Highway
    Silver Spring, MD 20910
    Page Author: NWS Internet Services Team
Disclaimer
Information Quality
Credits
Glossary
Privacy Policy
Freedom of Information Act (FOIA)
About Us
Career Opportunities